Startpagina
METAR-TAF:

METAR-TAF

Vliegvelden :

Luchthaven Yaoundé Nsimalen Internationaal

Yaoundé, Kameroen

breedte: 03-50N, lengte: 011-31E, hoogte: 751 m

METAR: ontbreekt

Tijdstip: 15:51 (14:51 UTC)

Verwachting

Dit bericht is 3 uur en het 51 minuten geleden gemaakt, om 11:00 UTC
Verwachting geldig van 26 om 12 UTC tot 27 om 12 UTC
Wind 6 kt uit het westen
Zicht: 8000 m
Gebroken wolken op 2000 ft
Tijdelijke
van 26 om 15 UTC tot 26 om 24 UTC
Gebroken wolken op 1400 ft
Weinig wolken op 2000 ft, Cumulonimbus.
onweer
Kans 30%
van 26 om 16 UTC tot 26 om 21 UTC
Zicht: 3500 m
onweer, regen
Wijzigt naar
van 26 om 20 UTC tot 26 om 22 UTC
Gebroken wolken op 600 ft
Weinig wolken op 1600 ft, Cumulonimbus.

TAF: FKYS 261100Z 2612/2712 26006KT 8000 BKN020 TEMPO 2615/2624 TS BKN014 FEW020CB PROB30 2616/2621 3500 TSRA BECMG 2620/2622 BKN006 FEW016CB

Waarnemingen en weersverwachtingen van meer dan 4000 vliegvelden (METAR en TAF).

De beschikbare stations zijn de gele en rode punten op de kaart.

Ga met uw muis naar het station om de naam te zien.

Klik dan om waarnemingen en weersverwachtingen te zien.

kaart wijzigen: klik op de groene knoppen met een zwart kruis om in te zoomen, op de groene knop met een streepje om uit te zoomen of op de groene pijlen voor aangrenzende kaarten.


METAR-TAF: